Etusivu
METAR-TAF:

METAR-TAF

Lentoasemat :

Chihuahua, Meksiko

Leveyspiiri: 28-42N, Pituuspiiri: 105-58W, korkeus merenpinnasta: 1360 m

Tämänhetkinen sää

Tämä raportti tehtiin 8 tuntia ja 22 minuuttia sitten, kello 03.40 UTC
Tuuli 8 kn pohjoisesta
Lämpötila 13°C
Kosteus 41%
Ilmanpaine 1019 hPa
Näkyvyys: 16.1 km
selkeää

METAR: MMCU 230340Z 01008KT 10SM SKC 13/00 A3009

Aika: 05:02 (12:02 UTC)

Sääennuste

Tämä raportti tehtiin 5 tuntia ja 59 minuuttia sitten, kello 06.03 UTC
Ennuste voimassa 23. päivästä klo 06 UTC - 24. päivään klo 06 UTC
Tuuli 8 kn pohjoisesta
Näkyvyys: 10 km
selkeää
From 23. päivästä klo 1800 UTC
Tuuli 8 kn pohjoisen/luoteesta
Näkyvyys: 10 km
Hajanaisia pilviä 22000 ft:n korkeudessa
Tulossa
24. päivästä klo 03 UTC - 24. päivään klo 05 UTC
Tuuli 5 kn idästä

TAF: MMCU 230603Z 2306/2406 01008KT P6SM SKC FM231800 33008KT P6SM SCT220 BECMG 2403/2405 08005KT

Säähavainnot ja -ennusteet yli 4000 lentoasemalta (METAR- ja TAF-raportit).

Käytössä olevat sääasemat on merkitty karttaan keltaisilla ja punaisilla pisteillä.

Aseta hiiri pisteen päälle nähdäksesi sääaseman nimen.

Klikkaa sitten nähdäksesi säähavainnot ja -ennusteet.

Kartan vaihtaminen: klikkaa mustalla rastilla varustettuja vihreitä pisteitä, niin voit zoomata sisään; viivalla varustettua vihreää pistettä, niin voit zoomata ulos tai vihreitä nuolia, niin pääset viereisille kartoille.


METAR-TAF: